Time;durP1;ratioP1;P1;durP2;ratioP2;P2;SDS_P1;SDS_P2;PMS_P1;PMS_P2;Temp;Humidity;BMP_temperature;BMP_pressure;BME280_temperature;BME280_humidity;BME280_pressure;Samples;Min_cycle;Max_cycle;Signal;HPM_P1;HPM_P2
2023/05/12 00:00:50;;;;;;;3.80;2.10;;;;;;;14.77;100.00;101748.94;2064767;28;20465;-64
2023/05/12 00:01:50;;;;;;;4.10;2.00;;;;;;;14.73;100.00;101751.00;2055693;28;20196;-64
2023/05/12 00:02:51;;;;;;;3.97;2.10;;;;;;;14.54;100.00;101735.09;2062259;28;20193;-64
2023/05/12 00:03:52;;;;;;;2.93;1.90;;;;;;;14.74;100.00;101756.16;2064178;28;20644;-64
2023/05/12 00:04:53;;;;;;;2.13;1.70;;;;;;;14.74;100.00;101772.13;2064305;28;20193;-64
2023/05/12 00:05:53;;;;;;;2.83;1.80;;;;;;;14.75;100.00;101754.16;2063902;28;20474;-64
2023/05/12 00:06:53;;;;;;;3.30;1.90;;;;;;;14.79;100.00;101761.22;2063368;28;20192;-64
2023/05/12 00:07:54;;;;;;;4.57;1.90;;;;;;;14.74;100.00;101761.75;2063596;28;20265;-64
2023/05/12 00:08:54;;;;;;;3.07;1.83;;;;;;;14.68;100.00;101765.47;2063889;28;20678;-64
2023/05/12 00:09:55;;;;;;;3.60;2.00;;;;;;;14.23;100.00;101719.84;2064197;28;20291;-64
2023/05/12 00:10:56;;;;;;;3.27;1.87;;;;;;;14.57;100.00;101760.16;2063888;28;20204;-64
2023/05/12 00:11:56;;;;;;;2.50;1.83;;;;;;;14.62;100.00;101758.84;2063971;28;20223;-64
2023/05/12 00:12:57;;;;;;;3.03;1.90;;;;;;;14.52;100.00;101754.28;2064587;28;20204;-64
2023/05/12 00:13:57;;;;;;;3.57;2.20;;;;;;;14.59;100.00;101760.50;2068841;28;20586;-64
2023/05/12 00:14:57;;;;;;;6.57;2.30;;;;;;;14.61;100.00;101762.84;2064466;28;20208;-64
2023/05/12 00:15:58;;;;;;;3.90;2.00;;;;;;;14.59;100.00;101759.69;2064101;28;20200;-64
2023/05/12 00:16:58;;;;;;;3.27;1.97;;;;;;;14.51;100.00;101770.22;2063950;28;20264;-64
2023/05/12 00:17:59;;;;;;;3.07;2.00;;;;;;;13.94;100.00;101669.47;2064063;28;20201;-64
2023/05/12 00:18:59;;;;;;;3.80;2.33;;;;;;;14.51;100.00;101761.84;2063089;28;20195;-64
2023/05/12 00:20:00;;;;;;;4.20;2.10;;;;;;;14.41;100.00;101767.69;2064084;28;20187;-64
2023/05/12 00:21:00;;;;;;;3.57;2.07;;;;;;;14.30;100.00;101756.75;2060509;28;20282;-64
2023/05/12 00:22:01;;;;;;;4.83;2.10;;;;;;;14.36;100.00;101759.81;2058491;28;20236;-64
2023/05/12 00:23:02;;;;;;;3.90;2.10;;;;;;;14.39;100.00;101765.31;2063974;28;20192;-64
2023/05/12 00:24:03;;;;;;;3.73;2.03;;;;;;;14.38;100.00;101766.53;2063874;28;20573;-64
2023/05/12 00:25:03;;;;;;;4.80;2.20;;;;;;;14.33;100.00;101761.47;2064238;28;20425;-64
2023/05/12 00:26:04;;;;;;;3.93;2.10;;;;;;;14.24;100.00;101755.69;2064216;28;20211;-64
2023/05/12 00:27:05;;;;;;;5.17;2.00;;;;;;;14.02;100.00;101723.84;2063532;28;20196;-64
2023/05/12 00:28:05;;;;;;;4.13;2.10;;;;;;;14.18;100.00;101764.94;2063727;28;20676;-64
2023/05/12 00:29:06;;;;;;;5.23;2.17;;;;;;;14.18;100.00;101764.94;2063029;28;20843;-64
2023/05/12 00:30:07;;;;;;;3.90;2.10;;;;;;;13.28;100.00;101615.13;2060385;28;20199;-64
2023/05/12 00:31:07;;;;;;;3.63;2.03;;;;;;;14.25;100.00;101768.41;2057455;28;20262;-64
2023/05/12 00:32:08;;;;;;;4.73;2.20;;;;;;;14.21;100.00;101764.91;2063483;28;20413;-64
2023/05/12 00:33:08;;;;;;;3.17;1.93;;;;;;;14.23;100.00;101764.47;2063697;28;20193;-65
2023/05/12 00:34:09;;;;;;;3.10;2.20;;;;;;;14.20;100.00;101768.13;2063462;28;20543;-65
2023/05/12 00:35:09;;;;;;;3.37;2.20;;;;;;;14.26;100.00;101769.19;2063805;28;20194;-65
2023/05/12 00:36:10;;;;;;;4.87;2.20;;;;;;;13.98;100.00;101720.34;2064273;28;20199;-64
2023/05/12 00:37:10;;;;;;;4.20;2.03;;;;;;;14.30;100.00;101767.88;2059303;28;20212;-64
2023/05/12 00:38:11;;;;;;;4.63;2.07;;;;;;;14.27;100.00;101768.78;2058636;28;20255;-64
2023/05/12 00:39:12;;;;;;;4.67;2.10;;;;;;;14.04;100.00;101734.59;2063149;28;20187;-64
2023/05/12 00:40:12;;;;;;;3.83;2.30;;;;;;;14.28;100.00;101766.75;2061987;28;20494;-64
2023/05/12 00:41:13;;;;;;;7.27;2.30;;;;;;;14.28;100.00;101772.31;2056542;28;20270;-65
2023/05/12 00:42:14;;;;;;;3.70;2.27;;;;;;;14.11;100.00;101765.88;2064059;28;20195;-65
2023/05/12 00:43:14;;;;;;;3.70;2.13;;;;;;;14.15;100.00;101772.16;2063707;28;20290;-65
2023/05/12 00:44:14;;;;;;;3.33;2.20;;;;;;;13.51;100.00;101679.91;2063913;28;20205;-65
2023/05/12 00:45:15;;;;;;;3.23;2.00;;;;;;;14.15;100.00;101771.38;2064571;28;20205;-65
2023/05/12 00:46:16;;;;;;;4.97;2.33;;;;;;;14.19;100.00;101774.91;2063524;28;20225;-65
2023/05/12 00:47:18;;;;;;;3.00;1.90;;;;;;;14.12;100.00;101770.25;2063525;28;20175;-65
2023/05/12 00:48:20;;;;;;;4.33;2.20;;;;;;;14.19;100.00;101767.34;2063551;28;20443;-65
2023/05/12 00:49:20;;;;;;;5.03;2.13;;;;;;;14.04;100.00;101749.28;2063129;28;20522;-65
2023/05/12 00:50:21;;;;;;;3.63;2.10;;;;;;;14.19;100.00;101780.47;2064008;28;20431;-65
2023/05/12 00:51:22;;;;;;;3.63;2.00;;;;;;;14.16;100.00;101778.53;2064045;28;20660;-65
2023/05/12 00:52:23;;;;;;;3.67;1.93;;;;;;;14.14;100.00;101775.41;2063505;28;20208;-65
2023/05/12 00:53:24;;;;;;;4.90;2.23;;;;;;;14.06;100.00;101780.31;2058540;28;20493;-65
2023/05/12 00:54:25;;;;;;;3.30;2.10;;;;;;;14.04;100.00;101805.03;2059972;28;20277;-65
2023/05/12 00:55:28;;;;;;;3.90;2.30;;;;;;;14.05;100.00;101778.75;2063860;28;20202;-65
2023/05/12 00:56:29;;;;;;;3.90;2.10;;;;;;;14.01;100.00;101780.81;2063746;28;20801;-64
2023/05/12 00:57:30;;;;;;;3.13;2.07;;;;;;;13.64;100.00;101719.06;2063265;28;20427;-64
2023/05/12 00:58:31;;;;;;;4.40;2.30;;;;;;;13.93;100.00;101768.22;2064034;28;20199;-64
2023/05/12 00:59:31;;;;;;;4.93;2.20;;;;;;;13.65;100.00;101729.78;2055762;28;20517;-64
2023/05/12 01:00:32;;;;;;;4.77;2.30;;;;;;;13.94;100.00;101780.94;2062619;28;20234;-64
2023/05/12 01:01:33;;;;;;;2.90;2.20;;;;;;;13.92;100.00;101785.38;2063610;28;20220;-64
2023/05/12 01:02:35;;;;;;;3.83;2.67;;;;;;;13.98;100.00;101792.03;2065368;28;20619;-64
2023/05/12 01:03:35;;;;;;;3.57;2.00;;;;;;;13.92;100.00;101783.38;2063832;28;20443;-64
2023/05/12 01:04:38;;;;;;;2.33;1.80;;;;;;;13.82;100.00;101786.34;2063768;28;20449;-64
2023/05/12 01:05:49;;;;;;;3.13;2.00;;;;;;;13.84;100.00;101783.94;2063979;28;20656;-64
2023/05/12 01:06:57;;;;;;;6.50;2.10;;;;;;;13.86;100.00;101785.09;2063215;28;20444;-64
2023/05/12 01:07:59;;;;;;;3.57;2.03;;;;;;;13.83;100.00;101783.16;2062449;28;20436;-64
2023/05/12 01:09:00;;;;;;;2.83;2.10;;;;;;;13.80;100.00;101783.22;2062504;28;20421;-64
2023/05/12 01:10:00;;;;;;;3.80;2.20;;;;;;;13.75;100.00;101781.72;2064279;28;20964;-64
2023/05/12 01:11:01;;;;;;;5.07;2.13;;;;;;;13.73;100.00;101786.91;2061087;28;20228;-64
2023/05/12 01:12:01;;;;;;;2.83;2.03;;;;;;;13.11;100.00;101680.28;2063636;28;20187;-64
2023/05/12 01:13:01;;;;;;;3.43;2.13;;;;;;;13.67;100.00;101776.69;2063526;28;20202;-64
2023/05/12 01:14:02;;;;;;;3.53;2.20;;;;;;;13.78;100.00;101788.44;2068181;28;20280;-64
2023/05/12 01:15:03;;;;;;;4.77;2.23;;;;;;;13.74;100.00;101782.16;2068496;28;20290;-64
2023/05/12 01:16:06;;;;;;;5.10;2.20;;;;;;;13.66;100.00;101766.75;2063828;28;20176;-64
2023/05/12 01:17:12;;;;;;;4.13;1.97;;;;;;;13.73;100.00;101786.16;2063089;28;20187;-64
2023/05/12 01:18:14;;;;;;;3.57;2.53;;;;;;;13.76;100.00;101790.84;2062677;28;20496;-64
2023/05/12 01:19:24;;;;;;;4.97;2.10;;;;;;;13.84;100.00;101795.09;2063095;28;20456;-64
2023/05/12 01:20:27;;;;;;;4.00;2.10;;;;;;;13.82;100.00;101791.94;2063920;28;20477;-64
2023/05/12 01:21:27;;;;;;;3.60;1.90;;;;;;;13.77;100.00;101790.44;2072515;28;20421;-64
2023/05/12 01:22:32;;;;;;;3.60;1.70;;;;;;;13.76;100.00;101782.50;2063713;28;20477;-64
2023/05/12 01:23:36;;;;;;;4.87;2.33;;;;;;;13.07;100.00;101669.19;2063556;28;20421;-64
2023/05/12 01:24:58;;;;;;;2.97;2.10;;;;;;;13.82;100.00;101789.13;2064013;28;20449;-64
2023/05/12 01:26:05;;;;;;;3.40;2.03;;;;;;;13.77;100.00;101782.06;2064008;28;20871;-64
2023/05/12 01:27:06;;;;;;;3.00;2.30;;;;;;;13.81;100.00;101795.94;2063217;28;20499;-64
2023/05/12 01:28:07;;;;;;;3.13;2.00;;;;;;;13.81;100.00;101791.16;2063486;28;20535;-64
2023/05/12 01:29:08;;;;;;;2.63;1.97;;;;;;;13.78;100.00;101802.38;2062853;28;20446;-64
2023/05/12 01:30:11;;;;;;;2.90;2.20;;;;;;;13.80;100.00;101780.44;2063385;28;20199;-64
2023/05/12 01:31:12;;;;;;;3.40;2.00;;;;;;;13.84;100.00;101795.09;2063811;28;20195;-64
2023/05/12 01:32:14;;;;;;;4.33;2.13;;;;;;;13.37;100.00;101721.16;2063625;28;20484;-64
2023/05/12 01:33:15;;;;;;;4.27;2.10;;;;;;;13.79;100.00;101793.56;2061641;28;20429;-64
2023/05/12 01:34:17;;;;;;;4.57;2.10;;;;;;;13.82;100.00;101789.94;2055934;28;20442;-64
2023/05/12 01:35:18;;;;;;;3.77;2.10;;;;;;;13.85;100.00;101803.03;2065848;28;20190;-64
2023/05/12 01:36:18;;;;;;;2.70;1.80;;;;;;;13.90;100.00;101796.16;2064313;28;20445;-64
2023/05/12 01:37:18;;;;;;;3.50;2.00;;;;;;;13.92;100.00;101802.09;2058054;28;20246;-64
2023/05/12 01:38:19;;;;;;;3.90;2.13;;;;;;;13.93;100.00;101792.53;2062351;28;20195;-64
2023/05/12 01:39:19;;;;;;;3.63;2.10;;;;;;;13.81;100.00;101782.81;2064701;28;20260;-64
2023/05/12 01:40:20;;;;;;;3.37;2.47;;;;;;;13.59;100.00;101750.19;2064990;28;20242;-64
2023/05/12 01:41:20;;;;;;;4.00;2.13;;;;;;;13.93;100.00;101792.53;2065011;28;20195;-64
2023/05/12 01:42:21;;;;;;;3.33;2.00;;;;;;;13.94;100.00;101806.03;2065410;28;20187;-64
2023/05/12 01:43:21;;;;;;;3.10;2.10;;;;;;;14.01;100.00;101791.97;2064877;28;20265;-64
2023/05/12 01:44:21;;;;;;;5.43;2.23;;;;;;;13.99;100.00;101802.75;2064621;28;20278;-64
2023/05/12 01:45:22;;;;;;;2.97;2.13;;;;;;;13.96;100.00;101795.25;2061007;28;20287;-64
2023/05/12 01:46:23;;;;;;;3.87;2.10;;;;;;;13.96;100.00;101805.59;2064937;28;20648;-64
2023/05/12 01:47:23;;;;;;;4.43;2.27;;;;;;;13.99;100.00;101799.97;2064614;28;20207;-64
2023/05/12 01:48:24;;;;;;;4.60;2.27;;;;;;;14.02;100.00;101801.09;2065019;28;20544;-64
2023/05/12 01:49:24;;;;;;;3.87;2.00;;;;;;;14.03;100.00;101799.91;2064350;28;20177;-64
2023/05/12 01:50:25;;;;;;;4.00;2.10;;;;;;;13.92;100.00;101788.16;2065843;28;20188;-64
2023/05/12 01:51:25;;;;;;;5.73;2.20;;;;;;;13.95;100.00;101804.84;2065980;28;20207;-64
2023/05/12 01:52:26;;;;;;;3.40;2.03;;;;;;;13.92;100.00;101805.69;2065414;28;20195;-64
2023/05/12 01:53:27;;;;;;;3.57;2.10;;;;;;;13.83;100.00;101799.09;2057815;28;20261;-64
2023/05/12 01:54:27;;;;;;;3.87;2.17;;;;;;;13.78;100.00;101797.56;2062587;28;20505;-64
2023/05/12 01:55:28;;;;;;;4.47;2.10;;;;;;;13.77;100.00;101801.56;2067111;28;20194;-64
2023/05/12 01:56:28;;;;;;;3.93;2.17;;;;;;;13.80;100.00;101789.59;2070143;28;20206;-64
2023/05/12 01:57:28;;;;;;;3.83;2.07;;;;;;;13.86;100.00;101799.03;2064398;28;20187;-64
2023/05/12 01:58:29;;;;;;;3.97;2.00;;;;;;;13.85;100.00;101791.88;2065131;28;20184;-64
2023/05/12 01:59:29;;;;;;;2.90;1.97;;;;;;;13.87;100.00;101797.00;2064236;28;20712;-65
2023/05/12 02:00:30;;;;;;;3.67;2.20;;;;;;;13.89;100.00;101797.38;2064676;28;20250;-65
2023/05/12 02:01:31;;;;;;;2.67;1.80;;;;;;;13.86;100.00;101801.00;2072859;28;20809;-65
2023/05/12 02:02:33;;;;;;;4.37;2.13;;;;;;;13.82;100.00;101792.72;2072469;28;20198;-65
2023/05/12 02:03:33;;;;;;;3.33;2.10;;;;;;;13.77;100.00;101798.78;2061518;28;20198;-65
2023/05/12 02:04:34;;;;;;;4.37;2.07;;;;;;;13.76;100.00;101793.63;2064466;28;20452;-64
2023/05/12 02:05:34;;;;;;;3.27;1.90;;;;;;;13.82;100.00;101783.56;2064768;28;20367;-64
2023/05/12 02:06:34;;;;;;;3.83;2.40;;;;;;;13.80;100.00;101799.94;2064622;28;20201;-65
2023/05/12 02:07:35;;;;;;;2.70;2.00;;;;;;;13.75;100.00;101795.66;2063522;28;20785;-64
2023/05/12 02:08:35;;;;;;;4.90;2.20;;;;;;;13.69;100.00;101805.69;2072320;28;20249;-64
2023/05/12 02:09:36;;;;;;;4.43;1.90;;;;;;;13.67;100.00;101796.19;2071504;28;20212;-64
2023/05/12 02:10:36;;;;;;;3.70;2.10;;;;;;;13.64;100.00;101805.41;2062422;28;20261;-64
2023/05/12 02:11:37;;;;;;;2.97;1.97;;;;;;;13.70;100.00;101798.13;2064900;28;20233;-64
2023/05/12 02:12:37;;;;;;;4.33;2.10;;;;;;;13.39;100.00;101747.38;2065152;28;20195;-64
2023/05/12 02:13:38;;;;;;;2.87;2.00;;;;;;;12.98;100.00;101694.00;2064492;28;20200;-64
2023/05/12 02:14:38;;;;;;;4.23;2.13;;;;;;;13.71;100.00;101806.06;2064216;28;20187;-64
2023/05/12 02:15:39;;;;;;;2.97;2.13;;;;;;;13.68;100.00;101803.34;2065584;28;20193;-64
2023/05/12 02:16:39;;;;;;;3.47;2.07;;;;;;;13.69;100.00;101810.50;2064691;28;20194;-64
2023/05/12 02:17:39;;;;;;;4.57;2.23;;;;;;;13.66;100.00;101800.97;2064398;28;20721;-64
2023/05/12 02:18:40;;;;;;;3.37;2.10;;;;;;;13.65;100.00;101809.75;2065192;28;20277;-64
2023/05/12 02:19:40;;;;;;;3.27;2.00;;;;;;;13.69;100.00;101802.91;2059885;28;20198;-64
2023/05/12 02:20:40;;;;;;;2.57;2.20;;;;;;;13.65;100.00;101805.00;2060402;28;20222;-64
2023/05/12 02:21:41;;;;;;;3.63;2.20;;;;;;;13.63;100.00;101807.41;2064929;28;20188;-64
2023/05/12 02:22:41;;;;;;;4.47;2.30;;;;;;;13.64;100.00;101820.13;2065085;28;20576;-64
2023/05/12 02:23:42;;;;;;;3.50;2.07;;;;;;;13.63;100.00;101806.63;2065426;28;20183;-64
2023/05/12 02:24:42;;;;;;;3.77;2.20;;;;;;;13.56;100.00;101813.09;2064616;28;20202;-64
2023/05/12 02:25:42;;;;;;;3.10;2.20;;;;;;;13.25;100.00;101769.06;2063887;28;20305;-64
2023/05/12 02:26:43;;;;;;;3.77;2.30;;;;;;;13.51;100.00;101810.78;2058558;28;20186;-64
2023/05/12 02:27:43;;;;;;;4.40;2.23;;;;;;;13.49;100.00;101820.78;2060515;28;20701;-64
2023/05/12 02:28:44;;;;;;;2.83;2.03;;;;;;;13.38;100.00;101820.94;2065294;28;20198;-64
2023/05/12 02:29:44;;;;;;;4.50;2.40;;;;;;;13.31;100.00;101812.72;2063980;28;20225;-64
2023/05/12 02:30:47;;;;;;;3.00;2.50;;;;;;;13.36;100.00;101815.03;2065248;28;20182;-64
2023/05/12 02:31:47;;;;;;;3.67;2.23;;;;;;;13.38;100.00;101812.59;2065516;28;20179;-64
2023/05/12 02:32:48;;;;;;;3.30;2.10;;;;;;;13.40;100.00;101821.34;2065156;28;20532;-64
2023/05/12 02:33:50;;;;;;;4.37;2.20;;;;;;;13.35;100.00;101816.25;2064676;28;20201;-65
2023/05/12 02:34:50;;;;;;;3.83;2.13;;;;;;;13.37;100.00;101815.81;2064710;28;20209;-65
2023/05/12 02:35:51;;;;;;;3.80;2.47;;;;;;;13.37;100.00;101826.97;2064349;28;20495;-64
2023/05/12 02:36:51;;;;;;;4.63;2.40;;;;;;;13.28;100.00;101819.13;2064569;28;20248;-64
2023/05/12 02:37:51;;;;;;;3.30;2.00;;;;;;;13.29;100.00;101826.28;2064517;28;20677;-64
2023/05/12 02:38:52;;;;;;;5.77;2.63;;;;;;;13.29;100.00;101823.50;2064710;28;20706;-64
2023/05/12 02:39:52;;;;;;;3.37;2.50;;;;;;;13.24;100.00;101821.19;2064418;28;20186;-64
2023/05/12 02:40:53;;;;;;;3.30;2.10;;;;;;;13.14;100.00;101818.56;2070043;28;20198;-64
2023/05/12 02:41:53;;;;;;;2.87;2.43;;;;;;;13.14;100.00;101821.34;2064220;28;20208;-64
2023/05/12 02:42:53;;;;;;;6.10;2.50;;;;;;;13.11;100.00;101816.66;2064370;28;20193;-64
2023/05/12 02:43:54;;;;;;;3.80;2.50;;;;;;;13.13;100.00;101833.69;2064271;28;20488;-64
2023/05/12 02:44:54;;;;;;;3.20;2.20;;;;;;;13.11;100.00;101825.75;2064469;28;20651;-65
2023/05/12 02:45:55;;;;;;;3.07;1.93;;;;;;;13.07;100.00;101825.03;2063743;28;20216;-64
2023/05/12 02:46:56;;;;;;;2.87;2.30;;;;;;;13.12;100.00;101834.91;2063778;28;20219;-65
2023/05/12 02:47:57;;;;;;;3.10;2.00;;;;;;;13.12;100.00;101826.56;2063578;28;20190;-64
2023/05/12 02:48:57;;;;;;;4.27;2.60;;;;;;;13.02;100.00;101833.84;2056437;28;20419;-65
2023/05/12 02:49:58;;;;;;;8.23;2.43;;;;;;;12.44;100.00;101741.66;2062748;28;20280;-64
2023/05/12 02:50:58;;;;;;;4.03;2.33;;;;;;;12.60;100.00;101770.44;2064696;28;20570;-64
2023/05/12 02:51:59;;;;;;;3.63;2.53;;;;;;;12.99;100.00;101833.91;2064290;28;20201;-64
2023/05/12 02:52:59;;;;;;;5.30;2.30;;;;;;;12.94;100.00;101834.34;2064326;28;20618;-64
2023/05/12 02:54:00;;;;;;;4.37;2.40;;;;;;;12.91;100.00;101835.97;2062823;28;20189;-64
2023/05/12 02:55:00;;;;;;;6.23;2.50;;;;;;;12.90;100.00;101836.38;2063763;28;20199;-64
2023/05/12 02:56:01;;;;;;;3.13;2.50;;;;;;;12.54;100.00;101785.22;2063693;28;20196;-64
2023/05/12 02:57:05;;;;;;;4.90;2.40;;;;;;;12.94;100.00;101839.91;2063249;28;20192;-64
2023/05/12 02:58:07;;;;;;;5.47;2.63;;;;;;;12.94;100.00;101837.91;2063321;28;20189;-64
2023/05/12 02:59:07;;;;;;;5.07;2.50;;;;;;;12.84;100.00;101833.28;2063963;28;20933;-65
2023/05/12 03:00:08;;;;;;;3.77;2.50;;;;;;;12.34;100.00;101778.75;2063702;28;21039;-65
2023/05/12 03:01:08;;;;;;;4.70;2.90;;;;;;;12.82;100.00;101852.38;2064499;28;20363;-64
2023/05/12 03:02:09;;;;;;;3.93;2.17;;;;;;;12.81;100.00;101841.69;2064355;28;20447;-65
2023/05/12 03:03:09;;;;;;;3.20;2.60;;;;;;;12.79;100.00;101836.53;2062178;28;20186;-65
2023/05/12 03:04:10;;;;;;;4.27;2.30;;;;;;;12.80;100.00;101854.81;2056981;28;20179;-65
2023/05/12 03:05:10;;;;;;;3.53;2.47;;;;;;;12.76;100.00;101842.16;2064593;28;20260;-64
2023/05/12 03:06:11;;;;;;;5.70;2.50;;;;;;;12.81;100.00;101853.59;2064604;28;20193;-65
2023/05/12 03:07:11;;;;;;;3.47;2.30;;;;;;;12.80;100.00;101852.03;2063239;28;20199;-65
2023/05/12 03:08:11;;;;;;;4.20;2.57;;;;;;;12.79;100.00;101850.44;2058309;28;20197;-65
2023/05/12 03:09:12;;;;;;;4.10;2.20;;;;;;;12.61;100.00;101826.88;2059812;28;20196;-65
2023/05/12 03:10:12;;;;;;;3.90;2.60;;;;;;;12.85;100.00;101848.78;2063915;28;20241;-65
2023/05/12 03:11:13;;;;;;;2.97;2.47;;;;;;;11.94;100.00;101724.84;2065949;28;20187;-64
2023/05/12 03:12:14;;;;;;;4.83;2.40;;;;;;;12.81;100.00;101850.81;2064318;28;20622;-65
2023/05/12 03:13:14;;;;;;;3.67;2.60;;;;;;;12.86;100.00;101857.91;2064610;28;20207;-65
2023/05/12 03:14:15;;;;;;;4.00;2.33;;;;;;;12.76;100.00;101851.28;2056150;28;20187;-64
2023/05/12 03:15:15;;;;;;;3.73;2.40;;;;;;;12.74;100.00;101861.25;2063119;28;20224;-65
2023/05/12 03:16:16;;;;;;;3.87;2.40;;;;;;;12.75;100.00;101854.50;2063775;28;20193;-65
2023/05/12 03:17:16;;;;;;;3.33;2.30;;;;;;;12.77;100.00;101861.22;2063502;28;20369;-65
2023/05/12 03:18:17;;;;;;;2.73;2.30;;;;;;;12.73;100.00;101856.88;2063495;28;20537;-65
2023/05/12 03:19:17;;;;;;;4.10;2.50;;;;;;;12.51;100.00;101828.56;2062897;28;20252;-65
2023/05/12 03:20:18;;;;;;;4.53;2.70;;;;;;;12.70;100.00;101866.09;2063302;28;20303;-65
2023/05/12 03:21:19;;;;;;;5.10;2.57;;;;;;;12.69;100.00;101862.50;2064305;28;20252;-65
2023/05/12 03:22:19;;;;;;;4.50;2.60;;;;;;;12.70;100.00;101868.88;2064556;28;20437;-65
2023/05/12 03:23:20;;;;;;;4.70;2.90;;;;;;;12.76;100.00;101881.88;2064193;28;20219;-65
2023/05/12 03:24:20;;;;;;;4.33;2.60;;;;;;;12.76;100.00;101867.97;2064452;28;20257;-65
2023/05/12 03:25:21;;;;;;;4.47;2.80;;;;;;;12.76;100.00;101867.19;2064171;28;20236;-66
2023/05/12 03:26:21;;;;;;;3.63;2.50;;;;;;;12.76;100.00;101879.09;2063037;28;20212;-65
2023/05/12 03:27:22;;;;;;;4.40;2.37;;;;;;;12.65;100.00;101870.09;2063316;28;20216;-65
2023/05/12 03:28:23;;;;;;;4.97;2.80;;;;;;;12.69;100.00;101867.25;2061838;28;20191;-65
2023/05/12 03:29:24;;;;;;;3.80;2.70;;;;;;;12.75;100.00;101880.31;2056099;28;20216;-65
2023/05/12 03:30:24;;;;;;;4.17;2.83;;;;;;;12.78;100.00;101887.81;2064357;28;20435;-65
2023/05/12 03:31:24;;;;;;;4.83;2.73;;;;;;;12.80;100.00;101885.41;2064363;28;20197;-65
2023/05/12 03:32:26;;;;;;;4.73;2.70;;;;;;;12.80;100.00;101885.41;2064375;28;20196;-65
2023/05/12 03:33:26;;;;;;;3.97;3.00;;;;;;;12.83;100.00;101892.13;2063511;28;20201;-65
2023/05/12 03:34:27;;;;;;;4.87;3.20;;;;;;;12.80;100.00;101888.19;2063999;28;20475;-65
2023/05/12 03:35:27;;;;;;;3.60;2.60;;;;;;;12.80;100.00;101887.41;2063930;28;20197;-65
2023/05/12 03:36:27;;;;;;;3.67;2.63;;;;;;;12.83;100.00;101890.16;2064031;28;20272;-65
2023/05/12 03:37:28;;;;;;;3.60;2.60;;;;;;;12.70;100.00;101866.09;2063832;28;20273;-65
2023/05/12 03:38:28;;;;;;;4.50;2.70;;;;;;;12.73;100.00;101898.59;2063030;28;20209;-65
2023/05/12 03:39:29;;;;;;;4.87;2.80;;;;;;;12.71;100.00;101893.47;2063715;28;20198;-65
2023/05/12 03:40:30;;;;;;;5.07;2.87;;;;;;;12.60;100.00;101894.81;2023353;28;1171182;-65
2023/05/12 03:41:30;;;;;;;5.87;2.67;;;;;;;12.54;100.00;101899.22;2064819;28;20684;-65
2023/05/12 03:42:31;;;;;;;8.10;3.30;;;;;;;12.50;100.00;101895.72;2064591;28;20206;-65
2023/05/12 03:43:31;;;;;;;3.93;2.90;;;;;;;12.57;100.00;101895.63;2063998;28;20190;-65
2023/05/12 03:44:32;;;;;;;5.87;3.13;;;;;;;12.40;100.00;101882.72;2064513;28;20194;-65
2023/05/12 03:45:32;;;;;;;6.10;3.10;;;;;;;11.88;100.00;101812.63;2064404;28;20186;-65
2023/05/12 03:46:33;;;;;;;4.27;2.90;;;;;;;12.45;100.00;101902.50;2064881;28;20201;-65
2023/05/12 03:47:34;;;;;;;4.90;3.00;;;;;;;12.51;100.00;101909.19;2063763;28;20198;-65
2023/05/12 03:48:35;;;;;;;4.47;2.83;;;;;;;12.45;100.00;101908.06;2064425;28;20289;-65
2023/05/12 03:49:35;;;;;;;4.10;2.60;;;;;;;12.46;100.00;101909.66;2063172;28;20464;-66
2023/05/12 03:50:36;;;;;;;3.93;2.83;;;;;;;12.34;100.00;101898.28;2063635;28;20202;-65
2023/05/12 03:51:36;;;;;;;3.80;3.00;;;;;;;12.47;100.00;101919.59;2064567;28;20202;-65
2023/05/12 03:52:39;;;;;;;3.80;2.33;;;;;;;11.63;100.00;101789.09;2064080;28;20185;-65
2023/05/12 03:53:44;;;;;;;3.53;2.67;;;;;;;12.45;100.00;101913.63;2064387;28;20175;-65
2023/05/12 03:54:44;;;;;;;5.50;3.10;;;;;;;12.44;100.00;101919.59;2064960;28;20421;-65
2023/05/12 03:55:44;;;;;;;4.00;3.13;;;;;;;12.45;100.00;101910.84;2064321;28;20491;-66
2023/05/12 03:56:45;;;;;;;3.73;2.93;;;;;;;12.50;100.00;101923.53;2064321;28;20198;-67
2023/05/12 03:57:47;;;;;;;3.47;2.90;;;;;;;12.51;100.00;101925.09;2057947;28;20235;-66
2023/05/12 03:58:47;;;;;;;4.87;2.60;;;;;;;12.54;100.00;101925.06;2061280;28;20198;-65
2023/05/12 03:59:48;;;;;;;4.97;3.13;;;;;;;12.50;100.00;101924.31;2062267;28;20453;-68
2023/05/12 04:00:49;;;;;;;5.23;2.93;;;;;;;12.50;100.00;101926.31;2063626;28;20231;-66
2023/05/12 04:01:52;;;;;;;4.03;3.17;;;;;;;12.48;100.00;101925.91;2068690;28;20176;-66
2023/05/12 04:02:52;;;;;;;3.90;2.70;;;;;;;12.49;100.00;101928.28;2063465;28;20453;-65
2023/05/12 04:03:52;;;;;;;4.23;2.87;;;;;;;12.47;100.00;101933.50;2064150;28;20445;-66
2023/05/12 04:04:53;;;;;;;5.33;3.00;;;;;;;12.43;100.00;101934.72;2063454;28;20235;-66
2023/05/12 04:06:01;;;;;;;5.50;2.87;;;;;;;12.46;100.00;101933.91;2063966;28;20217;-65
2023/05/12 04:07:01;;;;;;;6.97;3.27;;;;;;;12.44;100.00;101939.06;2063766;28;20196;-64
2023/05/12 04:08:02;;;;;;;5.27;3.27;;;;;;;12.38;100.00;101938.75;2063860;28;20475;-63
2023/05/12 04:09:03;;;;;;;5.70;3.27;;;;;;;12.43;100.00;101956.97;2063833;28;20332;-65
2023/05/12 04:10:03;;;;;;;3.53;2.97;;;;;;;12.47;100.00;101941.84;2063063;28;20216;-65
2023/05/12 04:11:04;;;;;;;6.17;3.33;;;;;;;12.50;100.00;101945.78;2061756;28;20191;-64
2023/05/12 04:12:05;;;;;;;4.37;3.10;;;;;;;12.40;100.00;101921.66;2063553;28;20182;-64
2023/05/12 04:13:06;;;;;;;6.70;2.87;;;;;;;12.47;100.00;101949.38;2064424;28;20193;-64
2023/05/12 04:14:07;;;;;;;5.60;3.00;;;;;;;11.90;100.00;101857.47;2064162;28;20299;-65
2023/05/12 04:15:08;;;;;;;4.10;3.13;;;;;;;12.50;100.00;101957.66;2064238;28;20460;-64
2023/05/12 04:16:08;;;;;;;5.33;3.37;;;;;;;12.46;100.00;101945.78;2064236;28;20221;-64
2023/05/12 04:17:09;;;;;;;9.00;3.40;;;;;;;12.50;100.00;101948.56;2063206;28;20205;-66
2023/05/12 04:18:10;;;;;;;8.77;3.63;;;;;;;12.46;100.00;101947.81;2063721;28;20556;-66
2023/05/12 04:19:10;;;;;;;4.43;3.40;;;;;;;11.60;100.00;101812.91;2061015;28;20531;-67
2023/05/12 04:20:11;;;;;;;7.13;3.70;;;;;;;12.39;100.00;101943.09;2066943;28;20186;-66
2023/05/12 04:21:12;;;;;;;4.67;3.30;;;;;;;12.43;100.00;101948.63;2063222;28;20187;-65
2023/05/12 04:22:12;;;;;;;8.50;3.50;;;;;;;12.45;100.00;101949.00;2064601;28;20194;-65
2023/05/12 04:23:14;;;;;;;7.20;3.50;;;;;;;12.43;100.00;101946.63;2063897;28;20201;-65
2023/05/12 04:24:14;;;;;;;4.00;3.33;;;;;;;12.43;100.00;101951.41;2063980;28;20212;-65
2023/05/12 04:25:14;;;;;;;5.50;3.60;;;;;;;12.39;100.00;101957.00;2060457;28;20454;-65
2023/05/12 04:26:15;;;;;;;6.47;3.60;;;;;;;12.35;100.00;101949.91;2060841;28;20244;-65
2023/05/12 04:27:15;;;;;;;7.00;3.60;;;;;;;11.56;100.00;101839.09;2061748;28;20243;-64
2023/05/12 04:28:16;;;;;;;7.77;3.90;;;;;;;12.24;100.00;101946.44;2061539;28;20193;-65
2023/05/12 04:29:16;;;;;;;5.13;3.63;;;;;;;12.25;100.00;101943.22;2062547;28;20245;-65
2023/05/12 04:30:16;;;;;;;5.57;3.53;;;;;;;11.93;100.00;101881.63;2063971;28;20288;-65
2023/05/12 04:31:17;;;;;;;5.90;3.57;;;;;;;11.48;100.00;101807.81;2061302;28;20615;-66
2023/05/12 04:32:17;;;;;;;6.17;3.77;;;;;;;12.28;100.00;101949.97;2062679;28;20652;-66
2023/05/12 04:33:18;;;;;;;6.40;4.03;;;;;;;12.25;100.00;101953.56;2059388;28;20361;-66
2023/05/12 04:34:18;;;;;;;6.60;3.90;;;;;;;12.21;100.00;101950.03;2061694;28;20206;-66
2023/05/12 04:35:18;;;;;;;9.17;3.90;;;;;;;12.21;100.00;101950.03;2060776;28;20295;-66
2023/05/12 04:36:19;;;;;;;4.20;3.80;;;;;;;12.21;100.00;101950.03;2061352;28;20190;-66
2023/05/12 04:37:21;;;;;;;8.23;3.50;;;;;;;12.17;100.00;101943.72;2069107;28;20193;-66
2023/05/12 04:38:21;;;;;;;4.93;3.60;;;;;;;12.16;100.00;101956.03;2061685;28;20194;-66
2023/05/12 04:39:22;;;;;;;5.50;4.07;;;;;;;12.12;100.00;101947.75;2063816;28;20451;-66
2023/05/12 04:40:22;;;;;;;5.27;3.90;;;;;;;11.92;100.00;101929.25;2065094;28;20283;-66